createdAt,value
2023-04-11T00:00:36.076Z,63.00
2023-04-11T00:03:02.901Z,63.10
2023-04-11T00:05:29.906Z,63.20
2023-04-11T00:07:56.754Z,63.50
2023-04-11T00:10:23.453Z,63.20
2023-04-11T00:12:50.126Z,63.30
2023-04-11T00:15:16.810Z,63.40
2023-04-11T00:17:43.758Z,63.40
2023-04-11T00:20:10.842Z,63.50
2023-04-11T00:22:37.531Z,63.50
2023-04-11T00:25:04.562Z,63.60
2023-04-11T00:27:31.279Z,63.70
2023-04-11T00:29:57.968Z,63.70
2023-04-11T00:32:25.088Z,63.80
2023-04-11T00:34:51.853Z,63.90
2023-04-11T00:37:18.741Z,63.90
2023-04-11T00:39:45.427Z,64.00
2023-04-11T00:42:12.123Z,64.10
2023-04-11T00:44:38.816Z,64.20
2023-04-11T00:47:06.708Z,64.20
2023-04-11T00:49:33.484Z,64.30
2023-04-11T00:52:00.385Z,64.30
2023-04-11T00:54:27.221Z,64.40
2023-04-11T00:56:53.978Z,64.40
2023-04-11T00:59:20.642Z,64.50
2023-04-11T01:01:47.385Z,64.70
2023-04-11T01:04:14.174Z,64.70
2023-04-11T01:06:40.909Z,64.70
2023-04-11T01:09:07.571Z,64.80
2023-04-11T01:11:34.301Z,64.90
2023-04-11T01:14:00.992Z,65.00
2023-04-11T01:16:27.745Z,65.00
2023-04-11T01:18:54.645Z,65.00
2023-04-11T01:21:21.475Z,65.00
2023-04-11T01:23:48.192Z,65.20
2023-04-11T01:26:15.040Z,65.20
2023-04-11T01:28:41.721Z,65.30
2023-04-11T01:31:08.441Z,65.30
2023-04-11T01:33:35.155Z,65.40
2023-04-11T01:36:01.864Z,65.40
2023-04-11T01:38:28.560Z,65.40
2023-04-11T01:40:55.250Z,65.40
2023-04-11T01:43:22.011Z,65.50
2023-04-11T01:45:48.764Z,65.60
2023-04-11T01:48:15.568Z,65.70
2023-04-11T01:50:42.312Z,65.60
2023-04-11T01:53:09.061Z,65.70
2023-04-11T01:55:35.765Z,65.80
2023-04-11T01:58:02.477Z,66.60
2023-04-11T02:00:29.168Z,65.80
2023-04-11T02:02:56.021Z,65.80
2023-04-11T02:05:22.829Z,65.90
2023-04-11T02:07:49.567Z,66.10
2023-04-11T02:10:16.270Z,66.10
2023-04-11T02:12:42.913Z,66.10
2023-04-11T02:15:09.909Z,66.10
2023-04-11T02:17:36.635Z,66.20
2023-04-11T02:20:03.486Z,66.30
2023-04-11T02:22:30.175Z,66.30
2023-04-11T02:24:56.834Z,66.40
2023-04-11T02:27:23.519Z,66.50
2023-04-11T02:29:50.187Z,66.50
2023-04-11T02:32:16.960Z,66.60
2023-04-11T02:34:43.658Z,66.60
2023-04-11T02:37:10.404Z,66.70
2023-04-11T02:39:37.070Z,66.70
2023-04-11T02:42:03.758Z,66.80
2023-04-11T02:44:30.412Z,66.80
2023-04-11T02:46:58.622Z,66.90
2023-04-11T02:49:25.369Z,67.00
2023-04-11T02:51:52.180Z,66.90
2023-04-11T02:54:18.861Z,66.90
2023-04-11T02:56:45.561Z,67.00
2023-04-11T02:59:12.239Z,67.10
2023-04-11T03:01:39.100Z,67.20
2023-04-11T03:04:05.958Z,67.20
2023-04-11T03:06:32.710Z,67.20
2023-04-11T03:08:59.396Z,67.30
2023-04-11T03:11:26.089Z,67.30
2023-04-11T03:13:52.793Z,67.40
2023-04-11T03:16:19.659Z,67.50
2023-04-11T03:18:46.384Z,67.60
2023-04-11T03:21:13.089Z,67.60
2023-04-11T03:23:39.778Z,67.60
2023-04-11T03:26:06.891Z,67.70
2023-04-11T03:28:33.661Z,67.70
2023-04-11T03:31:00.384Z,67.80
2023-04-11T03:33:27.226Z,67.80
2023-04-11T03:35:53.936Z,67.80
2023-04-11T03:38:20.645Z,67.90
2023-04-11T03:40:47.650Z,67.90
2023-04-11T03:43:14.987Z,68.00
2023-04-11T03:45:41.674Z,68.00
2023-04-11T03:48:08.517Z,68.10
2023-04-11T03:50:35.321Z,68.20
2023-04-11T03:53:02.019Z,68.20
2023-04-11T03:55:28.709Z,68.20
2023-04-11T03:57:55.425Z,68.20
2023-04-11T04:00:22.110Z,68.20
2023-04-11T04:02:48.878Z,68.30
2023-04-11T04:05:15.941Z,68.30
2023-04-11T04:07:42.679Z,68.40
2023-04-11T04:10:09.543Z,68.40
2023-04-11T04:12:36.229Z,68.40
2023-04-11T04:15:02.994Z,68.40
2023-04-11T04:17:29.668Z,68.40
2023-04-11T04:19:56.368Z,68.40
2023-04-11T04:22:23.049Z,68.40
2023-04-11T04:24:49.766Z,68.50
2023-04-11T04:27:16.443Z,68.50
2023-04-11T04:29:43.123Z,68.50
2023-04-11T04:32:10.339Z,68.50
2023-04-11T04:34:42.389Z,68.50
2023-04-11T04:37:09.157Z,68.70
2023-04-11T04:39:35.849Z,68.60
2023-04-11T04:42:02.520Z,68.70
2023-04-11T04:44:29.214Z,68.70
2023-04-11T04:46:56.322Z,68.70
2023-04-11T04:49:23.121Z,68.70
2023-04-11T04:51:49.815Z,68.80
2023-04-11T04:54:16.559Z,68.90
2023-04-11T04:56:43.235Z,68.90
2023-04-11T04:59:09.900Z,68.90
2023-04-11T05:01:36.647Z,68.90
2023-04-11T05:04:03.760Z,69.00
2023-04-11T05:06:31.309Z,69.00
2023-04-11T05:08:59.783Z,69.00
2023-04-11T05:11:27.103Z,69.00
2023-04-11T05:13:53.977Z,69.00
2023-04-11T05:16:21.028Z,69.00
2023-04-11T05:18:47.718Z,69.00
2023-04-11T05:21:14.674Z,69.10
2023-04-11T05:23:41.424Z,69.10
2023-04-11T05:26:08.425Z,69.20
2023-04-11T05:28:35.301Z,69.20
2023-04-11T05:31:02.184Z,69.20
2023-04-11T05:33:28.954Z,69.30
2023-04-11T05:35:55.750Z,69.40
2023-04-11T05:38:22.608Z,69.40
2023-04-11T05:40:49.318Z,69.40
2023-04-11T05:43:16.005Z,69.40
2023-04-11T05:45:42.957Z,69.50
2023-04-11T05:48:09.832Z,69.50
2023-04-11T05:50:36.623Z,69.60
2023-04-11T05:53:03.447Z,69.50
2023-04-11T05:55:30.151Z,69.50
2023-04-11T05:57:56.908Z,69.50
2023-04-11T06:00:23.651Z,69.60
2023-04-11T06:02:50.853Z,69.60
2023-04-11T06:05:17.940Z,69.70
2023-04-11T06:07:44.855Z,69.70
2023-04-11T06:10:11.509Z,69.70
2023-04-11T06:12:38.239Z,69.70
2023-04-11T06:15:05.339Z,69.80
2023-04-11T06:17:32.068Z,69.70
2023-04-11T06:19:58.769Z,69.70
2023-04-11T06:22:25.460Z,69.80
2023-04-11T06:24:52.152Z,69.80
2023-04-11T06:27:18.871Z,69.70
2023-04-11T06:29:45.561Z,69.70
2023-04-11T06:32:12.357Z,69.70
2023-04-11T06:34:39.460Z,69.60
2023-04-11T06:37:07.041Z,69.60
2023-04-11T06:39:34.070Z,69.50
2023-04-11T06:42:01.265Z,69.50
2023-04-11T06:44:28.134Z,69.50
2023-04-11T06:46:55.065Z,69.50
2023-04-11T06:49:22.737Z,69.50
2023-04-11T06:51:49.478Z,69.40
2023-04-11T06:54:16.902Z,69.20
2023-04-11T06:56:43.676Z,69.20
2023-04-11T06:59:10.367Z,69.20
2023-04-11T07:01:37.256Z,69.10
2023-04-11T07:04:07.089Z,69.00
2023-04-11T07:06:34.247Z,69.00
2023-04-11T07:09:01.009Z,68.90
2023-04-11T07:11:27.931Z,68.90
2023-04-11T07:13:58.949Z,68.80
2023-04-11T07:16:25.775Z,68.80
2023-04-11T07:18:55.708Z,68.70
2023-04-11T07:21:22.488Z,68.70
2023-04-11T07:23:49.200Z,68.60
2023-04-11T07:26:15.875Z,69.30
2023-04-11T07:28:42.787Z,68.40
2023-04-11T07:31:12.344Z,68.30
2023-04-11T07:33:39.195Z,68.30
2023-04-11T07:36:06.650Z,68.30
2023-04-11T07:38:33.457Z,68.20
2023-04-11T07:41:01.325Z,68.10
2023-04-11T07:43:28.389Z,68.00
2023-04-11T07:45:55.794Z,67.70
2023-04-11T07:48:22.821Z,67.70
2023-04-11T07:50:49.673Z,67.70
2023-04-11T07:53:16.402Z,67.60
2023-04-11T07:55:43.201Z,67.60
2023-04-11T07:58:09.885Z,67.50
2023-04-11T08:00:36.634Z,67.30
2023-04-11T08:03:07.006Z,67.20
2023-04-11T08:05:34.418Z,67.10
2023-04-11T08:08:01.757Z,67.00
2023-04-11T08:10:28.455Z,67.00
2023-04-11T08:12:55.558Z,66.90
2023-04-11T08:15:22.282Z,66.80
2023-04-11T08:17:48.981Z,66.60
2023-04-11T08:20:16.080Z,66.50
2023-04-11T08:22:43.068Z,66.30
2023-04-11T08:25:10.118Z,66.20
2023-04-11T08:27:36.823Z,66.10
2023-04-11T08:30:04.821Z,66.00
2023-04-11T08:32:31.570Z,65.80
2023-04-11T08:34:58.374Z,65.70
2023-04-11T08:37:25.094Z,65.70
2023-04-11T08:39:51.828Z,65.50
2023-04-11T08:42:28.622Z,65.40
2023-04-11T08:44:55.904Z,65.10
2023-04-11T08:47:23.174Z,65.00
2023-04-11T08:49:50.205Z,64.60
2023-04-11T08:52:17.670Z,64.40
2023-04-11T08:54:44.379Z,64.00
2023-04-11T08:57:11.168Z,63.60
2023-04-11T08:59:37.855Z,63.60
2023-04-11T09:02:08.129Z,63.40
2023-04-11T09:04:41.813Z,63.10
2023-04-11T09:07:08.704Z,63.00
2023-04-11T09:09:35.509Z,62.80
2023-04-11T09:12:02.283Z,62.70
2023-04-11T09:14:29.125Z,62.50
2023-04-11T09:17:06.707Z,62.10
2023-04-11T09:19:34.161Z,61.80
2023-04-11T09:22:02.490Z,61.40
2023-04-11T09:24:29.338Z,61.20
2023-04-11T09:27:12.188Z,60.90
2023-04-11T09:29:41.029Z,60.60
2023-04-11T09:32:07.857Z,60.50
2023-04-11T09:34:35.218Z,60.30
2023-04-11T09:37:01.908Z,60.40
2023-04-11T09:39:28.655Z,60.40
2023-04-11T09:41:55.412Z,60.10
2023-04-11T09:44:35.584Z,60.00
2023-04-11T09:47:02.290Z,60.00
2023-04-11T09:49:29.616Z,60.00
2023-04-11T09:51:56.340Z,60.00
2023-04-11T09:54:23.080Z,60.00
2023-04-11T09:56:50.033Z,59.90
2023-04-11T09:59:16.728Z,59.80
2023-04-11T10:01:43.596Z,59.70
2023-04-11T10:04:10.424Z,59.80
2023-04-11T10:06:41.930Z,59.80
2023-04-11T10:09:12.370Z,59.70
2023-04-11T10:11:43.009Z,59.50
2023-04-11T10:14:12.760Z,59.20
2023-04-11T10:17:04.883Z,59.20
2023-04-11T10:19:31.584Z,59.00
2023-04-11T10:21:58.253Z,58.60
2023-04-11T10:24:24.940Z,57.40
2023-04-11T10:27:03.991Z,56.40
2023-04-11T10:29:30.719Z,54.90
2023-04-11T10:32:12.876Z,54.50
2023-04-11T10:34:39.977Z,52.50
2023-04-11T10:37:11.346Z,50.90
2023-04-11T10:39:50.350Z,49.00
2023-04-11T10:42:43.510Z,47.10
2023-04-11T10:45:29.337Z,46.50
2023-04-11T10:47:58.850Z,45.90
2023-04-11T10:50:25.878Z,45.50
2023-04-11T10:52:59.629Z,44.40
2023-04-11T10:55:28.136Z,44.20
2023-04-11T10:58:07.841Z,44.50
2023-04-11T11:00:47.047Z,45.30
2023-04-11T11:03:21.609Z,44.40
2023-04-11T11:05:58.740Z,45.10
2023-04-11T11:08:28.763Z,46.40
2023-04-11T11:10:56.833Z,46.70
2023-04-11T11:13:23.547Z,47.50
2023-04-11T11:15:50.300Z,48.00
2023-04-11T11:18:17.091Z,47.10
2023-04-11T11:20:43.770Z,45.80
2023-04-11T11:23:10.847Z,45.20
2023-04-11T11:25:37.508Z,45.40
2023-04-11T11:28:08.086Z,46.10
2023-04-11T11:30:35.637Z,46.80
2023-04-11T11:33:18.662Z,47.60
2023-04-11T11:35:50.098Z,47.60
2023-04-11T11:38:16.778Z,46.90
2023-04-11T11:40:43.722Z,46.50
2023-04-11T11:43:11.211Z,46.30
2023-04-11T11:45:41.538Z,46.30
2023-04-11T11:48:08.392Z,46.80
2023-04-11T11:50:35.110Z,47.30
2023-04-11T11:53:19.804Z,47.90
2023-04-11T11:55:46.562Z,47.80
2023-04-11T11:58:13.292Z,48.10
2023-04-11T12:00:43.564Z,47.50
2023-04-11T12:03:10.534Z,47.70
2023-04-11T12:05:37.353Z,48.00
2023-04-11T12:08:05.492Z,47.80
2023-04-11T12:10:39.127Z,47.50
2023-04-11T12:13:32.226Z,47.30
2023-04-11T12:16:00.601Z,47.10
2023-04-11T12:18:27.774Z,47.70
2023-04-11T12:20:54.604Z,46.60
2023-04-11T12:23:21.397Z,46.60
2023-04-11T12:25:48.117Z,46.70
2023-04-11T12:28:15.309Z,46.60
2023-04-11T12:30:42.006Z,47.00
2023-04-11T12:33:08.888Z,47.20
2023-04-11T12:35:35.648Z,47.60
2023-04-11T12:38:02.373Z,47.80
2023-04-11T12:40:29.035Z,48.20
2023-04-11T12:44:22.954Z,48.30
2023-04-11T12:45:42.395Z,48.50
2023-04-11T12:48:09.148Z,48.60
2023-04-11T12:50:35.842Z,49.10
2023-04-11T12:53:02.579Z,49.20
2023-04-11T12:55:29.832Z,49.40
2023-04-11T12:57:56.549Z,49.60
2023-04-11T13:00:23.316Z,49.80
2023-04-11T13:02:50.170Z,50.10
2023-04-11T13:05:17.360Z,50.50
2023-04-11T13:07:44.491Z,50.90
2023-04-11T13:10:11.502Z,51.00
2023-04-11T13:12:38.196Z,51.10
2023-04-11T13:15:05.798Z,51.00
2023-04-11T13:17:32.806Z,51.20
2023-04-11T13:19:59.942Z,51.50
2023-04-11T13:22:26.620Z,52.00
2023-04-11T13:24:53.310Z,52.50
2023-04-11T13:27:20.003Z,52.70
2023-04-11T13:29:46.696Z,53.20
2023-04-11T13:34:41.250Z,53.80
2023-04-11T13:37:08.922Z,53.90
2023-04-11T13:39:35.649Z,54.20
2023-04-11T13:42:02.341Z,54.30
2023-04-11T13:44:29.046Z,54.40
2023-04-11T13:46:55.724Z,54.40
2023-04-11T13:49:22.404Z,54.50
2023-04-11T13:51:49.137Z,54.60
2023-04-11T13:54:15.898Z,55.10
2023-04-11T13:56:42.637Z,55.50
2023-04-11T13:59:09.321Z,55.80
2023-04-11T14:04:08.408Z,56.40
2023-04-11T14:09:10.061Z,56.90
2023-04-11T14:14:07.195Z,57.40
2023-04-11T14:19:06.293Z,57.80
2023-04-11T14:24:08.856Z,57.60
2023-04-11T14:29:10.786Z,57.70
2023-04-11T14:34:07.871Z,58.00
2023-04-11T14:39:09.946Z,57.70
2023-04-11T14:44:28.656Z,57.60
2023-04-11T14:46:56.337Z,57.60
2023-04-11T14:49:23.042Z,57.70
2023-04-11T14:51:49.760Z,58.30
2023-04-11T14:54:16.450Z,57.30
2023-04-11T14:56:49.243Z,57.20
2023-04-11T14:59:15.908Z,57.30
2023-04-11T15:01:49.372Z,57.30
2023-04-11T15:04:16.310Z,57.30
2023-04-11T15:06:43.188Z,57.30
2023-04-11T15:09:09.874Z,57.30
2023-04-11T15:11:43.227Z,57.20
2023-04-11T15:14:09.906Z,57.30
2023-04-11T15:19:14.399Z,57.30
2023-04-11T15:21:44.286Z,57.60
2023-04-11T15:24:11.013Z,57.70
2023-04-11T15:29:15.526Z,57.90
2023-04-11T15:31:48.436Z,58.00
2023-04-11T15:34:15.177Z,58.10
2023-04-11T15:36:45.292Z,58.40
2023-04-11T15:39:12.066Z,58.70
2023-04-11T15:41:45.277Z,59.00
2023-04-11T15:44:11.995Z,59.30
2023-04-11T15:46:46.950Z,59.70
2023-04-11T15:49:15.260Z,59.90
2023-04-11T15:51:49.272Z,60.10
2023-04-11T15:54:15.969Z,60.40
2023-04-11T15:56:49.259Z,60.80
2023-04-11T15:59:16.441Z,61.00
2023-04-11T16:01:50.359Z,61.20
2023-04-11T16:04:17.279Z,61.40
2023-04-11T16:06:50.270Z,61.50
2023-04-11T16:09:17.508Z,61.60
2023-04-11T16:11:50.314Z,61.90
2023-04-11T16:14:16.920Z,62.10
2023-04-11T16:16:50.611Z,62.10
2023-04-11T16:19:17.447Z,62.20
2023-04-11T16:21:52.846Z,62.50
2023-04-11T16:24:19.618Z,62.70
2023-04-11T16:26:52.232Z,62.70
2023-04-11T16:29:19.155Z,62.70
2023-04-11T16:31:49.769Z,63.00
2023-04-11T16:34:16.487Z,63.30
2023-04-11T16:36:50.238Z,63.30
2023-04-11T16:39:16.973Z,63.50
2023-04-11T16:44:34.247Z,63.90
2023-04-11T16:47:00.998Z,64.00
2023-04-11T16:49:27.709Z,64.10
2023-04-11T16:51:54.567Z,64.30
2023-04-11T16:54:21.249Z,64.60
2023-04-11T16:56:51.230Z,64.70
2023-04-11T16:59:17.910Z,64.90
2023-04-11T17:01:48.434Z,65.00
2023-04-11T17:04:15.324Z,65.20
2023-04-11T17:06:48.336Z,65.30
2023-04-11T17:09:15.523Z,65.60
2023-04-11T17:11:48.269Z,65.60
2023-04-11T17:14:14.978Z,65.60
2023-04-11T17:19:32.205Z,65.80
2023-04-11T17:21:58.979Z,65.90
2023-04-11T17:24:27.653Z,66.70
2023-04-11T17:26:54.671Z,66.10
2023-04-11T17:29:21.373Z,66.20
2023-04-11T17:31:51.255Z,66.40
2023-04-11T17:34:17.974Z,66.60
2023-04-11T17:39:35.342Z,66.70
2023-04-11T17:42:04.101Z,66.90
2023-04-11T17:44:30.847Z,66.90
2023-04-11T17:46:57.637Z,67.10
2023-04-11T17:49:27.189Z,67.20
2023-04-11T17:54:21.991Z,67.50
2023-04-11T17:56:52.997Z,67.70
2023-04-11T17:59:19.780Z,67.70
2023-04-11T18:01:53.455Z,67.80
2023-04-11T18:04:20.659Z,69.00
2023-04-11T18:06:54.260Z,68.20
2023-04-11T18:09:20.974Z,68.40
2023-04-11T18:14:20.064Z,68.60
2023-04-11T18:19:37.399Z,68.90
2023-04-11T18:22:04.162Z,69.10
2023-04-11T18:24:30.932Z,69.30
2023-04-11T18:26:58.058Z,69.30
2023-04-11T18:29:24.787Z,69.30
2023-04-11T18:34:22.014Z,69.50
2023-04-11T18:39:21.163Z,69.80
2023-04-11T18:44:18.296Z,70.30
2023-04-11T18:49:18.060Z,70.40
2023-04-11T18:54:21.121Z,70.30
2023-04-11T18:59:24.959Z,70.60
2023-04-11T19:04:22.891Z,70.80
2023-04-11T19:09:20.980Z,71.10
2023-04-11T19:14:21.676Z,71.40
2023-04-11T19:19:23.451Z,71.30
2023-04-11T19:24:22.789Z,71.40
2023-04-11T19:29:24.736Z,71.90
2023-04-11T19:34:24.041Z,72.00
2023-04-11T19:39:23.155Z,72.30
2023-04-11T19:44:24.756Z,72.30
2023-04-11T19:49:26.399Z,72.60
2023-04-11T19:54:25.543Z,72.80
2023-04-11T19:59:25.225Z,73.00
2023-04-11T20:04:19.910Z,72.90
2023-04-11T20:09:22.010Z,73.10
2023-04-11T20:14:23.608Z,73.30
2023-04-11T20:19:23.137Z,73.40
2023-04-11T20:24:24.908Z,73.40
2023-04-11T20:29:22.559Z,73.60
2023-04-11T20:34:24.161Z,73.80
2023-04-11T20:39:25.748Z,74.60
2023-04-11T20:44:27.354Z,74.20
2023-04-11T20:49:24.492Z,74.40
2023-04-11T20:54:26.605Z,74.60
2023-04-11T20:59:28.224Z,74.70
2023-04-11T21:04:27.379Z,74.90
2023-04-11T21:09:29.098Z,75.10
2023-04-11T21:14:26.283Z,75.10
2023-04-11T21:19:25.320Z,75.40
2023-04-11T21:24:26.924Z,75.60
2023-04-11T21:29:28.896Z,75.70
2023-04-11T21:34:26.619Z,75.90
2023-04-11T21:39:25.769Z,76.10
2023-04-11T21:44:27.343Z,76.20
2023-04-11T21:49:29.047Z,76.30
2023-04-11T21:54:30.625Z,76.50
2023-04-11T21:59:27.812Z,76.50
2023-04-11T22:04:31.438Z,76.70
2023-04-11T22:09:30.626Z,76.90
2023-04-11T22:14:32.194Z,77.10
2023-04-11T22:17:07.313Z,77.10
2023-04-11T22:19:34.020Z,77.10
2023-04-11T22:22:02.290Z,77.10
2023-04-11T22:24:29.025Z,77.20
2023-04-11T22:27:03.292Z,77.30
2023-04-11T22:29:29.975Z,77.30
2023-04-11T22:34:31.560Z,77.30
2023-04-11T22:39:33.116Z,77.50
2023-04-11T22:42:06.257Z,77.50
2023-04-11T22:44:32.980Z,77.60
2023-04-11T22:47:08.266Z,77.70
2023-04-11T22:49:35.013Z,77.80
2023-04-11T22:52:08.367Z,77.80
2023-04-11T22:54:35.119Z,77.80
2023-04-11T22:57:08.258Z,77.80
2023-04-11T22:59:34.941Z,77.90
2023-04-11T23:02:08.377Z,78.00
2023-04-11T23:04:35.173Z,78.00
2023-04-11T23:07:08.276Z,78.00
2023-04-11T23:09:34.977Z,78.00
2023-04-11T23:12:05.374Z,78.00
2023-04-11T23:14:32.073Z,78.00
2023-04-11T23:19:36.568Z,78.00
2023-04-11T23:22:09.325Z,78.10
2023-04-11T23:24:36.070Z,78.10
2023-04-11T23:27:09.328Z,78.10
2023-04-11T23:29:36.012Z,78.20
2023-04-11T23:32:09.329Z,78.20
2023-04-11T23:34:36.026Z,78.30
2023-04-11T23:37:10.274Z,78.30
2023-04-11T23:39:36.934Z,78.30
2023-04-11T23:42:10.350Z,78.30
2023-04-11T23:44:37.026Z,78.30
2023-04-11T23:47:10.529Z,78.20
2023-04-11T23:49:37.216Z,78.30
2023-04-11T23:52:10.363Z,78.30
2023-04-11T23:54:37.066Z,78.40
2023-04-11T23:57:10.265Z,78.40
2023-04-11T23:59:37.012Z,78.40
